createdAt,value
2018-12-10T00:00:11.472Z,0.84
2018-12-10T00:02:39.931Z,0.99
2018-12-10T00:05:08.378Z,0.95
2018-12-10T00:07:36.839Z,0.95
2018-12-10T00:10:05.509Z,0.86
2018-12-10T00:12:33.928Z,0.80
2018-12-10T00:15:02.408Z,0.76
2018-12-10T00:17:30.836Z,0.72
2018-12-10T00:19:59.279Z,0.71
2018-12-10T00:22:27.846Z,0.69
2018-12-10T00:24:56.384Z,-2.25
2018-12-10T00:27:25.756Z,0.71
2018-12-10T00:29:54.234Z,0.76
2018-12-10T00:32:22.692Z,0.76
2018-12-10T00:34:51.157Z,0.85
2018-12-10T00:37:19.713Z,0.99
2018-12-10T00:39:48.131Z,1.04
2018-12-10T00:42:16.568Z,0.98
2018-12-10T00:44:45.059Z,0.97
2018-12-10T00:47:13.496Z,0.86
2018-12-10T00:49:41.939Z,0.83
2018-12-10T00:52:10.394Z,0.80
2018-12-10T00:54:39.071Z,0.84
2018-12-10T00:57:07.576Z,0.85
2018-12-10T00:59:36.064Z,0.76
2018-12-10T01:02:04.470Z,0.77
2018-12-10T01:04:32.895Z,0.78
2018-12-10T01:07:01.361Z,0.76
2018-12-10T01:09:29.814Z,0.78
2018-12-10T01:11:58.236Z,0.79
2018-12-10T01:14:26.830Z,0.77
2018-12-10T01:16:55.268Z,0.80
2018-12-10T01:19:23.669Z,0.79
2018-12-10T01:21:52.244Z,0.69
2018-12-10T01:24:20.691Z,0.65
2018-12-10T01:26:49.114Z,0.65
2018-12-10T01:29:17.554Z,0.67
2018-12-10T01:31:45.981Z,0.84
2018-12-10T01:34:14.392Z,0.75
2018-12-10T01:36:42.873Z,0.62
2018-12-10T01:39:11.279Z,0.62
2018-12-10T01:41:39.707Z,0.55
2018-12-10T01:44:08.199Z,0.56
2018-12-10T01:46:36.636Z,0.53
2018-12-10T01:49:05.085Z,0.60
2018-12-10T01:51:33.569Z,0.56
2018-12-10T01:54:01.996Z,0.54
2018-12-10T01:56:30.421Z,0.50
2018-12-10T01:58:58.878Z,0.47
2018-12-10T02:01:27.304Z,0.44
2018-12-10T02:03:55.747Z,0.37
2018-12-10T02:06:24.432Z,0.42
2018-12-10T02:08:52.932Z,0.42
2018-12-10T02:11:21.377Z,0.40
2018-12-10T02:13:49.838Z,0.35
2018-12-10T02:16:18.245Z,0.34
2018-12-10T02:18:46.667Z,0.48
2018-12-10T02:21:15.172Z,0.49
2018-12-10T02:23:43.877Z,0.33
2018-12-10T02:26:12.831Z,0.29
2018-12-10T02:28:47.048Z,0.30
2018-12-10T02:31:15.509Z,0.22
2018-12-10T02:33:44.002Z,0.28
2018-12-10T02:36:12.451Z,0.41
2018-12-10T02:38:40.867Z,0.41
2018-12-10T02:41:09.310Z,0.43
2018-12-10T02:43:37.760Z,0.50
2018-12-10T02:46:06.181Z,0.55
2018-12-10T02:48:34.597Z,0.61
2018-12-10T02:51:03.119Z,0.64
2018-12-10T02:53:31.585Z,0.75
2018-12-10T02:56:00.009Z,0.76
2018-12-10T02:58:28.481Z,0.78
2018-12-10T03:00:56.925Z,0.81
2018-12-10T03:03:25.369Z,0.85
2018-12-10T03:05:53.825Z,0.84
2018-12-10T03:08:22.283Z,0.87
2018-12-10T03:10:50.764Z,0.81
2018-12-10T03:13:19.328Z,0.71
2018-12-10T03:15:47.780Z,0.72
2018-12-10T03:18:16.229Z,0.74
2018-12-10T03:20:44.733Z,0.71
2018-12-10T03:23:13.427Z,0.70
2018-12-10T03:25:42.140Z,0.73
2018-12-10T03:28:10.646Z,0.80
2018-12-10T03:30:39.081Z,0.80
2018-12-10T03:33:07.581Z,0.94
2018-12-10T03:35:36.057Z,1.13
2018-12-10T03:38:04.513Z,1.00
2018-12-10T03:40:32.991Z,0.91
2018-12-10T03:43:01.449Z,0.91
2018-12-10T03:45:29.937Z,0.94
2018-12-10T03:47:58.359Z,0.96
2018-12-10T03:50:26.832Z,0.99
2018-12-10T03:52:55.260Z,1.00
2018-12-10T03:55:23.672Z,1.03
2018-12-10T03:57:52.118Z,1.02
2018-12-10T04:00:20.597Z,0.98
2018-12-10T04:02:49.113Z,0.93
2018-12-10T04:05:17.594Z,0.88
2018-12-10T04:07:46.045Z,0.92
2018-12-10T04:10:14.493Z,0.87
2018-12-10T04:12:43.007Z,0.79
2018-12-10T04:15:11.457Z,0.72
2018-12-10T04:17:39.917Z,0.84
2018-12-10T04:20:08.371Z,0.69
2018-12-10T04:22:36.807Z,0.64
2018-12-10T04:25:05.397Z,0.64
2018-12-10T04:27:34.172Z,0.62
2018-12-10T04:30:02.646Z,0.64
2018-12-10T04:32:31.050Z,0.60
2018-12-10T04:34:59.518Z,0.53
2018-12-10T04:37:27.959Z,0.50
2018-12-10T04:39:56.372Z,0.44
2018-12-10T04:42:24.829Z,-0.21
2018-12-10T04:44:53.264Z,0.49
2018-12-10T04:47:21.730Z,0.51
2018-12-10T04:49:50.335Z,0.53
2018-12-10T04:52:18.768Z,0.49
2018-12-10T04:54:47.213Z,0.49
2018-12-10T04:57:15.693Z,0.48
2018-12-10T04:59:44.111Z,0.50
2018-12-10T05:02:12.550Z,0.60
2018-12-10T05:04:41.061Z,0.58
2018-12-10T05:07:09.505Z,0.62
2018-12-10T05:09:38.356Z,0.68
2018-12-10T05:12:06.829Z,0.87
2018-12-10T05:14:35.332Z,0.84
2018-12-10T05:17:03.918Z,0.86
2018-12-10T05:19:32.394Z,0.95
2018-12-10T05:22:00.804Z,1.06
2018-12-10T05:24:29.266Z,1.03
2018-12-10T05:26:57.692Z,0.91
2018-12-10T05:29:26.142Z,0.81
2018-12-10T05:31:54.639Z,0.80
2018-12-10T05:34:23.085Z,0.94
2018-12-10T05:36:51.530Z,0.94
2018-12-10T05:39:20.024Z,0.92
2018-12-10T05:41:48.663Z,0.99
2018-12-10T05:44:17.128Z,1.01
2018-12-10T05:46:46.356Z,1.06
2018-12-10T05:49:14.793Z,1.07
2018-12-10T05:51:43.207Z,1.08
2018-12-10T05:54:11.695Z,1.07
2018-12-10T05:56:40.119Z,1.05
2018-12-10T05:59:08.580Z,1.21
2018-12-10T06:01:37.076Z,1.21
2018-12-10T06:04:05.803Z,1.17
2018-12-10T06:06:34.245Z,1.16
2018-12-10T06:09:02.728Z,1.20
2018-12-10T06:11:31.139Z,1.19
2018-12-10T06:13:59.575Z,1.15
2018-12-10T06:16:28.038Z,1.21
2018-12-10T06:18:56.490Z,1.27
2018-12-10T06:21:24.909Z,1.31
2018-12-10T06:23:53.396Z,1.42
2018-12-10T06:26:21.859Z,1.47
2018-12-10T06:28:50.676Z,1.53
2018-12-10T06:31:19.146Z,1.58
2018-12-10T06:33:48.553Z,1.60
2018-12-10T06:36:17.685Z,1.60
2018-12-10T06:38:46.184Z,1.59
2018-12-10T06:41:14.647Z,1.74
2018-12-10T06:43:43.090Z,1.79
2018-12-10T06:46:13.788Z,1.97
2018-12-10T06:48:42.229Z,2.05
2018-12-10T06:51:10.908Z,1.90
2018-12-10T06:53:41.548Z,1.81
2018-12-10T06:56:09.961Z,1.76
2018-12-10T06:58:38.642Z,1.76
2018-12-10T07:01:07.300Z,1.85
2018-12-10T07:03:36.728Z,2.62
2018-12-10T07:06:05.216Z,3.25
2018-12-10T07:08:33.709Z,3.35
2018-12-10T07:11:03.060Z,3.59
2018-12-10T07:13:31.577Z,3.47
2018-12-10T07:16:00.100Z,3.56
2018-12-10T07:18:30.330Z,3.92
2018-12-10T07:20:59.341Z,4.18
2018-12-10T07:23:28.783Z,4.09
2018-12-10T07:25:58.345Z,3.75
2018-12-10T07:28:27.362Z,3.57
2018-12-10T07:30:56.809Z,3.40
2018-12-10T07:33:25.282Z,3.27
2018-12-10T07:35:53.991Z,3.15
2018-12-10T07:38:22.832Z,3.01
2018-12-10T07:40:52.377Z,3.00
2018-12-10T07:43:21.753Z,2.94
2018-12-10T07:45:50.248Z,2.98
2018-12-10T07:48:18.723Z,2.98
2018-12-10T07:50:47.436Z,3.01
2018-12-10T07:53:15.948Z,3.00
2018-12-10T07:55:45.484Z,3.03
2018-12-10T07:58:14.340Z,3.06
2018-12-10T08:00:43.301Z,3.07
2018-12-10T08:03:11.750Z,3.11
2018-12-10T08:05:40.250Z,3.14
2018-12-10T08:08:08.753Z,3.17
2018-12-10T08:10:37.177Z,3.21
2018-12-10T08:13:05.600Z,3.25
2018-12-10T08:15:34.110Z,3.33
2018-12-10T08:18:02.560Z,3.42
2018-12-10T08:20:31.037Z,3.51
2018-12-10T08:23:00.950Z,3.48
2018-12-10T08:25:29.639Z,3.47
2018-12-10T08:28:00.061Z,3.48
2018-12-10T08:30:28.579Z,3.54
2018-12-10T08:32:57.265Z,3.57
2018-12-10T08:35:26.022Z,3.61
2018-12-10T08:37:54.605Z,3.75
2018-12-10T08:40:23.502Z,3.72
2018-12-10T08:42:52.071Z,3.74
2018-12-10T08:45:20.812Z,3.78
2018-12-10T08:47:50.433Z,3.81
2018-12-10T08:50:19.252Z,3.88
2018-12-10T08:52:47.735Z,4.00
2018-12-10T08:55:16.609Z,4.13
2018-12-10T08:57:45.050Z,4.17
2018-12-10T09:00:14.309Z,4.22
2018-12-10T09:02:42.720Z,4.28
2018-12-10T09:05:11.436Z,4.35
2018-12-10T09:07:41.062Z,4.46
2018-12-10T09:10:09.895Z,4.09
2018-12-10T09:12:46.953Z,4.61
2018-12-10T09:15:11.959Z,4.74
2018-12-10T09:17:40.413Z,4.88
2018-12-10T09:20:09.451Z,5.02
2018-12-10T09:22:40.782Z,5.13
2018-12-10T09:25:09.259Z,5.25
2018-12-10T09:27:40.030Z,5.26
2018-12-10T09:30:11.007Z,5.32
2018-12-10T09:32:40.158Z,5.17
2018-12-10T09:35:11.280Z,5.10
2018-12-10T09:37:40.385Z,5.15
2018-12-10T09:40:09.575Z,5.24
2018-12-10T09:42:41.045Z,5.35
2018-12-10T09:45:09.950Z,5.49
2018-12-10T09:47:39.054Z,5.67
2018-12-10T09:50:11.172Z,5.80
2018-12-10T09:52:42.970Z,5.92
2018-12-10T09:55:13.740Z,6.14
2018-12-10T09:57:42.255Z,6.22
2018-12-10T10:00:11.110Z,6.49
2018-12-10T10:02:40.669Z,6.58
2018-12-10T10:05:09.542Z,6.08
2018-12-10T10:07:40.589Z,6.66
2018-12-10T10:10:11.325Z,6.66
2018-12-10T10:12:40.220Z,6.73
2018-12-10T10:15:10.030Z,6.86
2018-12-10T10:17:38.502Z,6.91
2018-12-10T10:20:09.748Z,6.87
2018-12-10T10:22:38.236Z,7.28
2018-12-10T10:25:07.191Z,7.39
2018-12-10T10:27:36.309Z,7.34
2018-12-10T10:30:05.205Z,7.51
2018-12-10T10:32:34.455Z,7.25
2018-12-10T10:35:03.364Z,7.67
2018-12-10T10:37:35.212Z,7.72
2018-12-10T10:40:04.630Z,7.81
2018-12-10T10:42:33.278Z,7.89
2018-12-10T10:45:01.755Z,7.89
2018-12-10T10:47:30.433Z,7.98
2018-12-10T10:49:58.845Z,7.98
2018-12-10T10:52:33.310Z,8.03
2018-12-10T10:55:00.945Z,7.98
2018-12-10T10:57:31.365Z,8.00
2018-12-10T10:59:59.895Z,8.04
2018-12-10T11:02:42.220Z,8.07
2018-12-10T11:05:11.147Z,8.21
2018-12-10T11:07:41.486Z,8.30
2018-12-10T11:10:12.427Z,8.42
2018-12-10T11:12:40.818Z,8.50
2018-12-10T11:15:11.525Z,8.60
2018-12-10T11:17:41.190Z,8.80
2018-12-10T11:20:09.746Z,8.99
2018-12-10T11:22:40.347Z,8.84
2018-12-10T11:25:09.238Z,8.77
2018-12-10T11:27:39.562Z,8.60
2018-12-10T11:30:08.723Z,8.54
2018-12-10T11:32:37.588Z,8.50
2018-12-10T11:35:07.244Z,8.48
2018-12-10T11:37:37.426Z,8.41
2018-12-10T11:40:08.604Z,8.44
2018-12-10T11:42:37.049Z,8.39
2018-12-10T11:45:06.084Z,8.19
2018-12-10T11:47:35.011Z,8.08
2018-12-10T11:50:04.769Z,7.94
2018-12-10T11:52:36.048Z,7.88
2018-12-10T11:55:05.269Z,7.60
2018-12-10T11:57:34.556Z,7.09
2018-12-10T12:00:03.061Z,6.57
2018-12-10T12:02:33.402Z,6.33
2018-12-10T12:05:02.350Z,6.18
2018-12-10T12:07:31.241Z,6.13
2018-12-10T12:10:00.399Z,5.76
2018-12-10T12:12:29.063Z,5.64
2018-12-10T12:14:57.612Z,5.53
2018-12-10T12:17:26.067Z,5.41
2018-12-10T12:19:54.901Z,5.36
2018-12-10T12:22:23.362Z,5.46
2018-12-10T12:24:52.010Z,5.35
2018-12-10T12:27:20.432Z,5.38
2018-12-10T12:29:48.936Z,5.46
2018-12-10T12:32:17.633Z,5.39
2018-12-10T12:34:46.312Z,5.51
2018-12-10T12:37:14.813Z,5.55
2018-12-10T12:39:43.265Z,5.55
2018-12-10T12:42:11.685Z,5.51
2018-12-10T12:44:40.145Z,5.49
2018-12-10T12:47:08.948Z,5.49
2018-12-10T12:49:37.368Z,5.44
2018-12-10T12:52:05.851Z,5.52
2018-12-10T12:54:34.550Z,5.49
2018-12-10T12:57:03.335Z,5.53
2018-12-10T12:59:31.804Z,5.53
2018-12-10T13:02:00.267Z,5.48
2018-12-10T13:04:30.779Z,5.44
2018-12-10T13:06:59.271Z,5.48
2018-12-10T13:09:27.953Z,5.50
2018-12-10T13:11:56.903Z,5.44
2018-12-10T13:14:25.409Z,5.48
2018-12-10T13:16:53.896Z,5.46
2018-12-10T13:19:22.577Z,5.47
2018-12-10T13:21:51.504Z,5.43
2018-12-10T13:24:21.048Z,5.46
2018-12-10T13:26:50.503Z,5.40
2018-12-10T13:29:19.166Z,5.42
2018-12-10T13:31:49.394Z,5.46
2018-12-10T13:34:17.800Z,5.43
2018-12-10T13:36:46.305Z,5.38
2018-12-10T13:39:14.979Z,5.36
2018-12-10T13:41:43.435Z,5.34
2018-12-10T13:44:11.925Z,5.39
2018-12-10T13:46:40.791Z,5.42
2018-12-10T13:49:09.249Z,5.38
2018-12-10T13:51:38.796Z,5.40
2018-12-10T13:54:07.262Z,5.45
2018-12-10T13:56:36.794Z,5.42
2018-12-10T13:59:05.890Z,5.54
2018-12-10T14:01:34.332Z,5.57
2018-12-10T14:04:05.031Z,5.63
2018-12-10T14:06:33.741Z,5.64
2018-12-10T14:09:08.018Z,5.45
2018-12-10T14:11:37.706Z,5.28
2018-12-10T14:14:06.168Z,5.19
2018-12-10T14:16:36.117Z,5.08
2018-12-10T14:19:07.523Z,5.04
2018-12-10T14:21:38.486Z,4.97
2018-12-10T14:24:07.388Z,4.91
2018-12-10T14:26:38.262Z,4.90
2018-12-10T14:29:07.309Z,4.85
2018-12-10T14:31:36.395Z,4.95
2018-12-10T14:34:11.609Z,5.28
2018-12-10T14:36:41.719Z,5.40
2018-12-10T14:39:10.525Z,5.24
2018-12-10T14:41:39.035Z,5.43
2018-12-10T14:44:07.537Z,5.39
2018-12-10T14:46:35.980Z,5.47
2018-12-10T14:49:05.585Z,5.36
2018-12-10T14:51:34.388Z,5.06
2018-12-10T14:54:03.824Z,4.84
2018-12-10T14:56:32.399Z,5.00
2018-12-10T14:59:03.514Z,4.98
2018-12-10T15:01:32.745Z,4.87
2018-12-10T15:04:01.509Z,4.94
2018-12-10T15:06:30.381Z,4.97
2018-12-10T15:08:58.872Z,4.76
2018-12-10T15:11:27.322Z,4.60
2018-12-10T15:13:55.766Z,4.50
2018-12-10T15:16:24.392Z,4.43
2018-12-10T15:18:54.748Z,4.35
2018-12-10T15:21:23.270Z,4.27
2018-12-10T15:23:51.823Z,4.25
2018-12-10T15:26:20.709Z,4.16
2018-12-10T15:28:50.495Z,4.17
2018-12-10T15:31:18.986Z,4.07
2018-12-10T15:33:48.037Z,3.99
2018-12-10T15:36:16.794Z,3.93
2018-12-10T15:38:45.363Z,3.97
2018-12-10T15:41:14.093Z,4.06
2018-12-10T15:43:43.360Z,4.22
2018-12-10T15:46:12.762Z,4.21
2018-12-10T15:48:41.502Z,4.19
2018-12-10T15:51:10.255Z,4.24
2018-12-10T15:53:39.482Z,4.33
2018-12-10T15:56:08.633Z,4.34
2018-12-10T15:58:37.408Z,4.26
2018-12-10T16:01:05.906Z,4.27
2018-12-10T16:03:34.494Z,4.14
2018-12-10T16:06:03.037Z,3.95
2018-12-10T16:08:31.520Z,3.74
2018-12-10T16:11:00.141Z,3.58
2018-12-10T16:13:28.683Z,3.43
2018-12-10T16:15:57.485Z,3.32
2018-12-10T16:18:26.940Z,3.21
2018-12-10T16:20:55.490Z,3.07
2018-12-10T16:23:24.039Z,2.94
2018-12-10T16:25:53.350Z,2.88
2018-12-10T16:28:21.875Z,2.80
2018-12-10T16:30:50.639Z,2.77
2018-12-10T16:33:19.302Z,2.64
2018-12-10T16:35:48.549Z,2.55
2018-12-10T16:38:17.468Z,2.50
2018-12-10T16:40:46.348Z,2.58
2018-12-10T16:43:15.226Z,1.90
2018-12-10T16:45:44.364Z,2.37
2018-12-10T16:48:13.973Z,2.32
2018-12-10T16:50:43.034Z,2.39
2018-12-10T16:53:12.608Z,2.54
2018-12-10T16:55:41.443Z,2.59
2018-12-10T16:58:10.867Z,2.65
2018-12-10T17:00:39.898Z,2.82
2018-12-10T17:03:08.359Z,2.72
2018-12-10T17:05:36.835Z,2.83
2018-12-10T17:08:05.270Z,2.84
2018-12-10T17:10:34.108Z,2.88
2018-12-10T17:13:02.591Z,2.89
2018-12-10T17:15:31.047Z,2.89
2018-12-10T17:17:59.458Z,2.88
2018-12-10T17:20:28.103Z,2.97
2018-12-10T17:22:56.921Z,3.07
2018-12-10T17:25:25.810Z,3.07
2018-12-10T17:27:54.286Z,3.19
2018-12-10T17:30:22.817Z,3.18
2018-12-10T17:32:51.231Z,3.22
2018-12-10T17:35:19.700Z,3.23
2018-12-10T17:37:48.499Z,3.14
2018-12-10T17:40:16.975Z,3.14
2018-12-10T17:42:45.436Z,3.12
2018-12-10T17:45:14.816Z,3.20
2018-12-10T17:47:43.333Z,3.19
2018-12-10T17:50:11.804Z,2.98
2018-12-10T17:52:40.322Z,2.77
2018-12-10T17:55:10.278Z,2.59
2018-12-10T17:57:38.822Z,2.51
2018-12-10T18:00:09.324Z,2.54
2018-12-10T18:02:37.768Z,2.85
2018-12-10T18:05:06.503Z,2.95
2018-12-10T18:07:35.057Z,2.79
2018-12-10T18:10:04.041Z,2.59
2018-12-10T18:12:32.615Z,2.38
2018-12-10T18:15:01.162Z,2.25
2018-12-10T18:17:29.660Z,2.16
2018-12-10T18:19:58.153Z,2.07
2018-12-10T18:22:26.766Z,2.01
2018-12-10T18:24:55.321Z,2.04
2018-12-10T18:27:23.871Z,2.03
2018-12-10T18:29:52.416Z,2.01
2018-12-10T18:32:20.959Z,1.97
2018-12-10T18:34:49.494Z,2.00
2018-12-10T18:37:18.075Z,2.15
2018-12-10T18:39:46.620Z,2.07
2018-12-10T18:42:15.140Z,2.07
2018-12-10T18:44:43.936Z,2.27
2018-12-10T18:47:12.460Z,2.55
2018-12-10T18:49:40.993Z,3.19
2018-12-10T18:52:09.464Z,3.09
2018-12-10T18:54:38.013Z,2.72
2018-12-10T18:57:06.500Z,2.81
2018-12-10T18:59:35.129Z,2.92
2018-12-10T19:02:03.601Z,1.07
2018-12-10T19:04:32.179Z,2.80
2018-12-10T19:07:01.073Z,2.68
2018-12-10T19:09:29.684Z,2.58
2018-12-10T19:11:59.152Z,2.55
2018-12-10T19:14:28.034Z,2.53
2018-12-10T19:16:56.574Z,2.48
2018-12-10T19:19:25.456Z,2.39
2018-12-10T19:21:55.008Z,2.33
2018-12-10T19:24:24.007Z,2.26
2018-12-10T19:26:52.557Z,2.02
2018-12-10T19:29:21.093Z,2.11
2018-12-10T19:31:49.774Z,2.05
2018-12-10T19:34:18.356Z,1.99
2018-12-10T19:36:46.922Z,1.95
2018-12-10T19:39:15.451Z,1.79
2018-12-10T19:41:44.149Z,1.73
2018-12-10T19:44:12.700Z,1.69
2018-12-10T19:46:41.324Z,1.66
2018-12-10T19:49:09.954Z,1.61
2018-12-10T19:51:38.708Z,1.59
2018-12-10T19:54:07.397Z,1.58
2018-12-10T19:56:36.029Z,1.60
2018-12-10T19:59:04.617Z,1.62
2018-12-10T20:01:33.217Z,1.67
2018-12-10T20:04:01.858Z,1.67
2018-12-10T20:06:32.546Z,1.66
2018-12-10T20:09:01.052Z,1.61
2018-12-10T20:11:31.277Z,1.59
2018-12-10T20:13:59.834Z,2.47
2018-12-10T20:16:29.189Z,2.65
2018-12-10T20:18:57.796Z,3.03
2018-12-10T20:21:26.287Z,3.12
2018-12-10T20:23:54.814Z,2.76
2018-12-10T20:26:23.657Z,2.44
2018-12-10T20:28:52.275Z,2.08
2018-12-10T20:31:20.807Z,1.76
2018-12-10T20:33:49.391Z,1.44
2018-12-10T20:36:18.373Z,1.21
2018-12-10T20:38:46.951Z,1.17
2018-12-10T20:41:15.582Z,1.00
2018-12-10T20:43:44.194Z,-0.48
2018-12-10T20:46:12.746Z,1.04
2018-12-10T20:48:41.325Z,1.05
2018-12-10T20:51:09.802Z,1.19
2018-12-10T20:53:38.882Z,1.29
2018-12-10T20:56:07.647Z,1.23
2018-12-10T20:58:36.691Z,1.16
2018-12-10T21:01:05.678Z,1.06
2018-12-10T21:03:34.405Z,1.21
2018-12-10T21:06:08.981Z,1.33
2018-12-10T21:08:37.564Z,1.42
2018-12-10T21:11:06.170Z,1.40
2018-12-10T21:13:35.804Z,1.45
2018-12-10T21:16:04.399Z,1.50
2018-12-10T21:18:32.938Z,1.55
2018-12-10T21:21:01.561Z,1.42
2018-12-10T21:23:30.198Z,1.39
2018-12-10T21:26:14.862Z,1.39
2018-12-10T21:28:44.294Z,1.35
2018-12-10T21:31:12.938Z,1.31
2018-12-10T21:33:41.594Z,1.25
2018-12-10T21:36:10.142Z,1.19
2018-12-10T21:38:38.912Z,1.14
2018-12-10T21:41:07.503Z,1.08
2018-12-10T21:43:36.455Z,1.05
2018-12-10T21:46:05.252Z,1.01
2018-12-10T21:48:34.079Z,0.94
2018-12-10T21:51:02.573Z,0.86
2018-12-10T21:53:31.455Z,0.81
2018-12-10T21:55:59.925Z,0.77
2018-12-10T21:58:28.335Z,0.72
2018-12-10T22:00:56.827Z,0.68
2018-12-10T22:03:25.328Z,0.64
2018-12-10T22:05:53.812Z,0.62
2018-12-10T22:08:22.298Z,0.62
2018-12-10T22:10:51.476Z,0.59
2018-12-10T22:13:20.827Z,0.56
2018-12-10T22:15:49.362Z,0.56
2018-12-10T22:18:17.905Z,0.57
2018-12-10T22:20:46.590Z,0.50
2018-12-10T22:23:15.079Z,0.47
2018-12-10T22:25:43.595Z,0.27
2018-12-10T22:28:12.309Z,0.55
2018-12-10T22:30:41.019Z,0.51
2018-12-10T22:33:09.519Z,0.37
2018-12-10T22:35:37.981Z,0.29
2018-12-10T22:38:06.912Z,0.23
2018-12-10T22:40:35.406Z,0.20
2018-12-10T22:43:03.867Z,0.23
2018-12-10T22:45:32.326Z,0.23
2018-12-10T22:48:00.844Z,0.27
2018-12-10T22:50:29.441Z,0.29
2018-12-10T22:52:57.900Z,0.35
2018-12-10T22:55:26.399Z,0.35
2018-12-10T22:57:54.933Z,0.40
2018-12-10T23:00:25.537Z,0.51
2018-12-10T23:02:54.033Z,0.52
2018-12-10T23:05:22.470Z,0.68
2018-12-10T23:07:50.930Z,0.77
2018-12-10T23:10:20.383Z,0.96
2018-12-10T23:12:48.811Z,0.99
2018-12-10T23:15:18.061Z,1.05
2018-12-10T23:17:46.594Z,1.05
2018-12-10T23:20:15.285Z,1.03
2018-12-10T23:22:43.973Z,1.05
2018-12-10T23:25:14.170Z,1.19
2018-12-10T23:27:43.856Z,1.19
2018-12-10T23:30:13.160Z,1.27
2018-12-10T23:32:48.607Z,1.34
2018-12-10T23:35:18.220Z,1.47
2018-12-10T23:37:46.649Z,1.65
2018-12-10T23:40:15.147Z,1.67
2018-12-10T23:45:45.293Z,1.70
2018-12-10T23:48:14.006Z,1.56
2018-12-10T23:50:42.425Z,1.44
2018-12-10T23:53:10.889Z,1.34
2018-12-10T23:55:39.347Z,1.22
2018-12-10T23:58:07.802Z,1.18
